sensor_id;sensor_type;location;lat;lon;timestamp;pressure;altitude;pressure_sealevel;temperature;humidity
12536;BME280;6334;48.696;2.114;2023-02-12T00:02:28;102006.33;;;7.73;77.51
12536;BME280;6334;48.696;2.114;2023-02-12T00:04:58;102014.38;;;7.58;77.92
12536;BME280;6334;48.696;2.114;2023-02-12T00:07:29;102008.07;;;7.61;77.98
12536;BME280;6334;48.696;2.114;2023-02-12T00:09:59;102010.75;;;7.59;77.62
12536;BME280;6334;48.696;2.114;2023-02-12T00:12:29;102001.44;;;7.55;78.07
12536;BME280;6334;48.696;2.114;2023-02-12T00:15:00;102007.06;;;7.43;78.83
12536;BME280;6334;48.696;2.114;2023-02-12T00:17:30;102007.00;;;7.25;79.60
12536;BME280;6334;48.696;2.114;2023-02-12T00:20:01;102007.47;;;7.37;79.19
12536;BME280;6334;48.696;2.114;2023-02-12T00:22:31;102007.00;;;7.36;79.26
12536;BME280;6334;48.696;2.114;2023-02-12T00:25:02;101992.35;;;7.41;78.74
12536;BME280;6334;48.696;2.114;2023-02-12T00:27:32;102000.13;;;7.56;78.31
12536;BME280;6334;48.696;2.114;2023-02-12T00:30:03;101999.85;;;7.42;78.51
12536;BME280;6334;48.696;2.114;2023-02-12T00:32:33;101992.45;;;7.51;78.13
12536;BME280;6334;48.696;2.114;2023-02-12T00:35:04;101996.51;;;7.43;78.61
12536;BME280;6334;48.696;2.114;2023-02-12T00:37:34;101996.13;;;7.22;80.06
12536;BME280;6334;48.696;2.114;2023-02-12T00:40:05;101995.83;;;7.18;79.63
12536;BME280;6334;48.696;2.114;2023-02-12T00:42:35;101997.16;;;7.33;79.39
12536;BME280;6334;48.696;2.114;2023-02-12T00:45:06;101993.81;;;7.34;79.26
12536;BME280;6334;48.696;2.114;2023-02-12T00:47:36;101999.91;;;7.31;79.21
12536;BME280;6334;48.696;2.114;2023-02-12T00:50:07;101997.33;;;7.08;80.33
12536;BME280;6334;48.696;2.114;2023-02-12T00:52:37;102000.45;;;7.10;80.67
12536;BME280;6334;48.696;2.114;2023-02-12T00:55:07;101998.51;;;7.17;80.34
12536;BME280;6334;48.696;2.114;2023-02-12T00:57:36;101998.11;;;7.37;79.59
12536;BME280;6334;48.696;2.114;2023-02-12T01:00:07;101994.86;;;7.32;79.67
12536;BME280;6334;48.696;2.114;2023-02-12T01:02:37;101996.56;;;7.28;79.41
12536;BME280;6334;48.696;2.114;2023-02-12T01:05:08;101997.65;;;7.33;79.63
12536;BME280;6334;48.696;2.114;2023-02-12T01:07:38;101996.16;;;7.33;79.47
12536;BME280;6334;48.696;2.114;2023-02-12T01:10:09;101995.69;;;7.43;79.09
12536;BME280;6334;48.696;2.114;2023-02-12T01:12:40;101987.32;;;7.16;80.34
12536;BME280;6334;48.696;2.114;2023-02-12T01:15:10;101998.96;;;7.28;79.36
12536;BME280;6334;48.696;2.114;2023-02-12T01:17:40;101996.77;;;7.32;79.69
12536;BME280;6334;48.696;2.114;2023-02-12T01:20:12;101993.89;;;7.34;79.71
12536;BME280;6334;48.696;2.114;2023-02-12T01:22:41;101993.84;;;7.45;79.21
12536;BME280;6334;48.696;2.114;2023-02-12T01:25:12;101993.25;;;7.33;79.14
12536;BME280;6334;48.696;2.114;2023-02-12T01:27:42;101992.73;;;7.12;80.04
12536;BME280;6334;48.696;2.114;2023-02-12T01:30:12;101992.09;;;6.93;80.80
12536;BME280;6334;48.696;2.114;2023-02-12T01:32:43;101973.86;;;7.07;79.65
12536;BME280;6334;48.696;2.114;2023-02-12T01:35:13;101994.30;;;7.07;80.07
12536;BME280;6334;48.696;2.114;2023-02-12T01:37:44;101991.93;;;7.03;79.76
12536;BME280;6334;48.696;2.114;2023-02-12T01:40:14;101985.09;;;6.82;80.30
12536;BME280;6334;48.696;2.114;2023-02-12T01:42:45;101997.80;;;7.17;79.42
12536;BME280;6334;48.696;2.114;2023-02-12T01:47:45;101995.72;;;7.20;79.29
12536;BME280;6334;48.696;2.114;2023-02-12T01:50:16;101991.92;;;7.43;78.15
12536;BME280;6334;48.696;2.114;2023-02-12T01:52:49;101990.30;;;7.16;79.62
12536;BME280;6334;48.696;2.114;2023-02-12T01:55:16;101994.55;;;7.04;79.91
12536;BME280;6334;48.696;2.114;2023-02-12T01:57:47;101995.09;;;6.94;80.55
12536;BME280;6334;48.696;2.114;2023-02-12T02:00:21;101996.37;;;6.88;80.06
12536;BME280;6334;48.696;2.114;2023-02-12T02:02:49;101996.16;;;7.10;79.74
12536;BME280;6334;48.696;2.114;2023-02-12T02:07:51;102000.03;;;6.89;80.07
12536;BME280;6334;48.696;2.114;2023-02-12T02:10:22;102001.36;;;6.76;80.72
12536;BME280;6334;48.696;2.114;2023-02-12T02:12:52;101989.47;;;6.91;79.38
12536;BME280;6334;48.696;2.114;2023-02-12T02:15:41;101996.90;;;7.00;78.57
12536;BME280;6334;48.696;2.114;2023-02-12T02:18:23;101997.64;;;6.79;78.98
12536;BME280;6334;48.696;2.114;2023-02-12T02:32:18;101989.25;;;6.97;78.08
12536;BME280;6334;48.696;2.114;2023-02-12T02:35:04;101992.30;;;7.17;77.11
12536;BME280;6334;48.696;2.114;2023-02-12T02:40:11;101988.81;;;6.94;77.77
12536;BME280;6334;48.696;2.114;2023-02-12T02:42:48;101984.82;;;6.86;77.64
12536;BME280;6334;48.696;2.114;2023-02-12T02:45:20;101982.44;;;7.09;77.31
12536;BME280;6334;48.696;2.114;2023-02-12T02:47:54;101983.09;;;7.31;76.46
12536;BME280;6334;48.696;2.114;2023-02-12T02:50:22;101981.52;;;7.08;76.98
12536;BME280;6334;48.696;2.114;2023-02-12T02:53:07;101976.30;;;7.18;76.81
12536;BME280;6334;48.696;2.114;2023-02-12T02:55:38;101974.46;;;6.88;77.88
12536;BME280;6334;48.696;2.114;2023-02-12T02:58:13;101944.43;;;7.31;75.96
12536;BME280;6334;48.696;2.114;2023-02-12T03:00:44;101967.83;;;7.40;75.73
12536;BME280;6334;48.696;2.114;2023-02-12T03:06:12;101966.48;;;7.07;77.49
12536;BME280;6334;48.696;2.114;2023-02-12T03:08:41;101961.02;;;7.30;76.41
12536;BME280;6334;48.696;2.114;2023-02-12T03:11:15;101966.30;;;7.24;76.73
12536;BME280;6334;48.696;2.114;2023-02-12T03:13:48;101964.51;;;7.15;77.15
12536;BME280;6334;48.696;2.114;2023-02-12T03:16:24;101949.16;;;7.31;76.52
12536;BME280;6334;48.696;2.114;2023-02-12T03:19:41;101953.30;;;7.24;76.80
12536;BME280;6334;48.696;2.114;2023-02-12T03:21:27;101960.27;;;7.14;76.78
12536;BME280;6334;48.696;2.114;2023-02-12T03:24:00;101961.59;;;7.24;76.94
12536;BME280;6334;48.696;2.114;2023-02-12T03:26:46;101956.71;;;7.29;76.49
12536;BME280;6334;48.696;2.114;2023-02-12T03:29:14;101944.07;;;7.28;76.27
12536;BME280;6334;48.696;2.114;2023-02-12T03:34:42;101948.81;;;7.30;76.39
12536;BME280;6334;48.696;2.114;2023-02-12T03:42:30;101935.70;;;7.35;76.62
12536;BME280;6334;48.696;2.114;2023-02-12T03:45:00;101939.66;;;7.21;76.86
12536;BME280;6334;48.696;2.114;2023-02-12T03:52:36;101927.90;;;7.09;76.79
12536;BME280;6334;48.696;2.114;2023-02-12T03:55:06;101936.66;;;7.00;77.14
12536;BME280;6334;48.696;2.114;2023-02-12T03:57:38;101936.77;;;6.99;77.41
12536;BME280;6334;48.696;2.114;2023-02-12T04:00:10;101930.62;;;7.29;76.43
12536;BME280;6334;48.696;2.114;2023-02-12T04:02:39;101933.55;;;7.19;76.67
12536;BME280;6334;48.696;2.114;2023-02-12T04:05:19;101931.60;;;7.31;76.03
12536;BME280;6334;48.696;2.114;2023-02-12T04:07:48;101937.60;;;7.35;75.90
12536;BME280;6334;48.696;2.114;2023-02-12T04:10:20;101936.64;;;7.38;75.82
12536;BME280;6334;48.696;2.114;2023-02-12T04:13:01;101942.00;;;7.27;75.81
12536;BME280;6334;48.696;2.114;2023-02-12T04:18:19;101937.27;;;7.35;75.91
12536;BME280;6334;48.696;2.114;2023-02-12T04:21:03;101950.23;;;6.93;77.12
12536;BME280;6334;48.696;2.114;2023-02-12T04:26:44;101948.41;;;6.93;77.33
12536;BME280;6334;48.696;2.114;2023-02-12T04:34:32;101953.89;;;7.06;76.55
12536;BME280;6334;48.696;2.114;2023-02-12T04:37:14;101955.86;;;7.01;77.06
12536;BME280;6334;48.696;2.114;2023-02-12T04:39:33;101953.33;;;6.85;77.39
12536;BME280;6334;48.696;2.114;2023-02-12T04:42:03;101957.59;;;6.93;77.34
12536;BME280;6334;48.696;2.114;2023-02-12T04:44:35;101959.83;;;7.03;76.92
12536;BME280;6334;48.696;2.114;2023-02-12T04:47:04;101953.05;;;6.62;77.86
12536;BME280;6334;48.696;2.114;2023-02-12T04:49:34;101958.14;;;7.12;76.76
12536;BME280;6334;48.696;2.114;2023-02-12T04:52:05;101957.11;;;6.94;77.19
12536;BME280;6334;48.696;2.114;2023-02-12T04:54:37;101963.47;;;7.03;76.90
12536;BME280;6334;48.696;2.114;2023-02-12T04:57:07;101963.28;;;6.88;77.28
12536;BME280;6334;48.696;2.114;2023-02-12T04:59:37;101955.68;;;6.88;77.49
12536;BME280;6334;48.696;2.114;2023-02-12T05:02:08;101954.78;;;6.93;77.12
12536;BME280;6334;48.696;2.114;2023-02-12T05:04:38;101951.05;;;7.03;76.71
12536;BME280;6334;48.696;2.114;2023-02-12T05:07:09;101957.53;;;7.06;76.63
12536;BME280;6334;48.696;2.114;2023-02-12T05:09:39;101951.53;;;7.33;75.68
12536;BME280;6334;48.696;2.114;2023-02-12T05:12:10;101948.55;;;7.09;76.64
12536;BME280;6334;48.696;2.114;2023-02-12T05:14:40;101948.45;;;7.05;76.80
12536;BME280;6334;48.696;2.114;2023-02-12T05:17:12;101944.48;;;7.25;75.86
12536;BME280;6334;48.696;2.114;2023-02-12T05:19:42;101948.00;;;7.11;76.50
12536;BME280;6334;48.696;2.114;2023-02-12T05:22:13;101946.82;;;7.26;76.11
12536;BME280;6334;48.696;2.114;2023-02-12T05:24:43;101952.22;;;7.08;76.16
12536;BME280;6334;48.696;2.114;2023-02-12T05:27:13;101944.95;;;7.34;75.53
12536;BME280;6334;48.696;2.114;2023-02-12T05:29:44;101944.78;;;7.09;76.43
12536;BME280;6334;48.696;2.114;2023-02-12T05:32:14;101943.50;;;7.25;75.94
12536;BME280;6334;48.696;2.114;2023-02-12T05:34:45;101948.34;;;7.01;76.60
12536;BME280;6334;48.696;2.114;2023-02-12T05:37:15;101941.63;;;7.08;76.62
12536;BME280;6334;48.696;2.114;2023-02-12T05:39:47;101933.61;;;7.21;76.13
12536;BME280;6334;48.696;2.114;2023-02-12T05:42:15;101924.02;;;6.98;76.36
12536;BME280;6334;48.696;2.114;2023-02-12T05:44:46;101942.63;;;7.09;76.51
12536;BME280;6334;48.696;2.114;2023-02-12T05:47:15;101938.06;;;7.11;76.40
12536;BME280;6334;48.696;2.114;2023-02-12T05:49:46;101928.11;;;7.13;76.13
12536;BME280;6334;48.696;2.114;2023-02-12T05:52:17;101937.02;;;7.02;76.51
12536;BME280;6334;48.696;2.114;2023-02-12T05:54:50;101933.16;;;7.17;75.96
12536;BME280;6334;48.696;2.114;2023-02-12T05:57:21;101929.04;;;6.71;77.74
12536;BME280;6334;48.696;2.114;2023-02-12T05:59:50;101931.81;;;7.04;76.58
12536;BME280;6334;48.696;2.114;2023-02-12T06:02:21;101935.72;;;6.90;77.02
12536;BME280;6334;48.696;2.114;2023-02-12T06:04:50;101926.75;;;7.09;76.28
12536;BME280;6334;48.696;2.114;2023-02-12T06:07:21;101926.69;;;7.00;76.43
12536;BME280;6334;48.696;2.114;2023-02-12T06:09:51;101905.58;;;7.12;75.84
12536;BME280;6334;48.696;2.114;2023-02-12T06:12:22;101921.23;;;6.97;76.51
12536;BME280;6334;48.696;2.114;2023-02-12T06:14:52;101921.74;;;6.83;77.14
12536;BME280;6334;48.696;2.114;2023-02-12T06:17:23;101899.18;;;6.78;76.67
12536;BME280;6334;48.696;2.114;2023-02-12T06:19:53;101921.02;;;6.93;76.67
12536;BME280;6334;48.696;2.114;2023-02-12T06:22:23;101922.13;;;6.84;76.98
12536;BME280;6334;48.696;2.114;2023-02-12T06:24:54;101921.65;;;6.79;77.10
12536;BME280;6334;48.696;2.114;2023-02-12T06:27:24;101922.06;;;6.90;76.80
12536;BME280;6334;48.696;2.114;2023-02-12T06:29:55;101918.84;;;6.72;77.40
12536;BME280;6334;48.696;2.114;2023-02-12T06:32:25;101925.03;;;6.82;76.98
12536;BME280;6334;48.696;2.114;2023-02-12T06:34:56;101918.70;;;7.00;76.45
12536;BME280;6334;48.696;2.114;2023-02-12T06:37:26;101912.66;;;6.88;76.61
12536;BME280;6334;48.696;2.114;2023-02-12T06:39:57;101926.22;;;6.61;77.63
12536;BME280;6334;48.696;2.114;2023-02-12T06:42:27;101929.48;;;6.99;76.48
12536;BME280;6334;48.696;2.114;2023-02-12T06:44:57;101932.58;;;6.54;77.77
12536;BME280;6334;48.696;2.114;2023-02-12T06:47:28;101927.77;;;6.79;77.14
12536;BME280;6334;48.696;2.114;2023-02-12T06:49:59;101928.73;;;7.01;76.18
12536;BME280;6334;48.696;2.114;2023-02-12T06:52:30;101929.88;;;6.86;76.76
12536;BME280;6334;48.696;2.114;2023-02-12T06:55:00;101936.02;;;6.87;76.91
12536;BME280;6334;48.696;2.114;2023-02-12T06:57:31;101920.42;;;6.90;76.40
12536;BME280;6334;48.696;2.114;2023-02-12T07:00:00;101914.77;;;6.97;75.83
12536;BME280;6334;48.696;2.114;2023-02-12T07:02:31;101933.46;;;6.99;76.20
12536;BME280;6334;48.696;2.114;2023-02-12T07:05:02;101941.83;;;6.82;77.15
12536;BME280;6334;48.696;2.114;2023-02-12T07:07:32;101933.62;;;6.91;76.41
12536;BME280;6334;48.696;2.114;2023-02-12T07:10:02;101941.13;;;6.96;76.56
12536;BME280;6334;48.696;2.114;2023-02-12T07:12:32;101938.98;;;6.86;77.02
12536;BME280;6334;48.696;2.114;2023-02-12T07:15:02;101947.98;;;6.71;77.48
12536;BME280;6334;48.696;2.114;2023-02-12T07:17:33;101949.64;;;6.95;76.83
12536;BME280;6334;48.696;2.114;2023-02-12T07:20:04;101951.97;;;6.83;77.05
12536;BME280;6334;48.696;2.114;2023-02-12T07:22:37;101935.62;;;6.58;77.80
12536;BME280;6334;48.696;2.114;2023-02-12T07:25:07;101954.88;;;6.84;77.25
12536;BME280;6334;48.696;2.114;2023-02-12T07:27:38;101963.56;;;6.48;78.59
12536;BME280;6334;48.696;2.114;2023-02-12T07:30:08;101940.95;;;6.52;77.86
12536;BME280;6334;48.696;2.114;2023-02-12T07:32:38;101944.09;;;6.81;76.82
12536;BME280;6334;48.696;2.114;2023-02-12T07:35:08;101966.80;;;6.91;76.74
12536;BME280;6334;48.696;2.114;2023-02-12T07:37:39;101964.73;;;7.21;75.63
12536;BME280;6334;48.696;2.114;2023-02-12T07:40:09;101966.36;;;7.18;75.68
12536;BME280;6334;48.696;2.114;2023-02-12T07:42:40;101963.89;;;6.79;76.98
12536;BME280;6334;48.696;2.114;2023-02-12T07:45:09;101964.69;;;6.88;76.89
12536;BME280;6334;48.696;2.114;2023-02-12T07:47:40;101964.51;;;6.90;76.78
12536;BME280;6334;48.696;2.114;2023-02-12T07:50:10;101963.59;;;7.14;76.00
12536;BME280;6334;48.696;2.114;2023-02-12T07:52:40;101960.36;;;7.47;74.60
12536;BME280;6334;48.696;2.114;2023-02-12T07:55:10;101972.82;;;7.18;75.61
12536;BME280;6334;48.696;2.114;2023-02-12T07:57:41;101950.28;;;7.13;75.56
12536;BME280;6334;48.696;2.114;2023-02-12T08:00:11;101962.20;;;7.05;76.06
12536;BME280;6334;48.696;2.114;2023-02-12T08:02:42;101958.53;;;7.02;76.52
12536;BME280;6334;48.696;2.114;2023-02-12T08:05:12;101958.63;;;7.15;75.89
12536;BME280;6334;48.696;2.114;2023-02-12T08:07:43;101955.92;;;7.25;75.56
12536;BME280;6334;48.696;2.114;2023-02-12T08:10:13;101965.95;;;7.23;75.42
12536;BME280;6334;48.696;2.114;2023-02-12T08:12:43;101958.59;;;7.52;74.66
12536;BME280;6334;48.696;2.114;2023-02-12T08:15:14;101955.00;;;7.36;75.02
12536;BME280;6334;48.696;2.114;2023-02-12T08:17:44;101960.23;;;7.26;75.43
12536;BME280;6334;48.696;2.114;2023-02-12T08:20:15;101950.67;;;7.30;75.21
12536;BME280;6334;48.696;2.114;2023-02-12T08:22:45;101962.91;;;7.14;75.95
12536;BME280;6334;48.696;2.114;2023-02-12T08:25:15;101958.42;;;7.62;74.35
12536;BME280;6334;48.696;2.114;2023-02-12T08:27:45;101961.65;;;7.47;74.54
12536;BME280;6334;48.696;2.114;2023-02-12T08:30:15;101968.44;;;7.31;75.36
12536;BME280;6334;48.696;2.114;2023-02-12T08:32:47;101969.97;;;7.19;75.43
12536;BME280;6334;48.696;2.114;2023-02-12T08:35:15;101968.72;;;7.60;74.37
12536;BME280;6334;48.696;2.114;2023-02-12T08:37:45;101952.30;;;7.65;73.67
12536;BME280;6334;48.696;2.114;2023-02-12T08:40:15;101974.00;;;7.21;75.63
12536;BME280;6334;48.696;2.114;2023-02-12T08:42:45;101967.09;;;7.41;74.93
12536;BME280;6334;48.696;2.114;2023-02-12T08:45:14;101968.70;;;7.63;74.42
12536;BME280;6334;48.696;2.114;2023-02-12T08:47:46;101973.44;;;7.30;75.43
12536;BME280;6334;48.696;2.114;2023-02-12T08:50:14;101974.62;;;7.35;75.64
12536;BME280;6334;48.696;2.114;2023-02-12T08:52:44;101974.69;;;7.43;75.15
12536;BME280;6334;48.696;2.114;2023-02-12T08:55:13;101975.20;;;7.72;74.28
12536;BME280;6334;48.696;2.114;2023-02-12T08:57:43;101966.86;;;7.69;74.33
12536;BME280;6334;48.696;2.114;2023-02-12T09:00:13;101964.33;;;7.55;74.73
12536;BME280;6334;48.696;2.114;2023-02-12T09:02:43;101972.48;;;7.46;74.92
12536;BME280;6334;48.696;2.114;2023-02-12T09:05:14;101975.94;;;7.69;74.55
12536;BME280;6334;48.696;2.114;2023-02-12T09:07:44;101974.23;;;7.73;74.54
12536;BME280;6334;48.696;2.114;2023-02-12T09:10:15;101968.77;;;7.60;74.87
12536;BME280;6334;48.696;2.114;2023-02-12T09:12:44;101970.52;;;7.84;73.97
12536;BME280;6334;48.696;2.114;2023-02-12T09:15:15;101970.30;;;7.80;73.82
12536;BME280;6334;48.696;2.114;2023-02-12T09:17:44;101971.08;;;7.78;74.21
12536;BME280;6334;48.696;2.114;2023-02-12T09:20:14;101967.19;;;7.60;74.22
12536;BME280;6334;48.696;2.114;2023-02-12T09:22:44;101958.89;;;7.58;74.70
12536;BME280;6334;48.696;2.114;2023-02-12T09:25:14;101959.60;;;7.73;74.43
12536;BME280;6334;48.696;2.114;2023-02-12T09:27:43;101962.61;;;7.91;73.78
12536;BME280;6334;48.696;2.114;2023-02-12T09:30:14;101960.30;;;7.88;73.76
12536;BME280;6334;48.696;2.114;2023-02-12T09:32:44;101960.00;;;7.57;75.23
12536;BME280;6334;48.696;2.114;2023-02-12T09:35:15;101955.89;;;7.85;73.85
12536;BME280;6334;48.696;2.114;2023-02-12T09:37:45;101959.63;;;7.75;74.54
12536;BME280;6334;48.696;2.114;2023-02-12T09:40:24;101958.09;;;7.95;73.84
12536;BME280;6334;48.696;2.114;2023-02-12T09:43:02;101956.21;;;8.19;72.63
12536;BME280;6334;48.696;2.114;2023-02-12T09:45:34;101955.87;;;8.24;72.89
12536;BME280;6334;48.696;2.114;2023-02-12T09:50:53;101950.77;;;7.94;73.61
12536;BME280;6334;48.696;2.114;2023-02-12T09:53:23;101955.02;;;7.96;73.10
12536;BME280;6334;48.696;2.114;2023-02-12T09:55:52;101951.82;;;7.85;73.61
12536;BME280;6334;48.696;2.114;2023-02-12T09:58:30;101958.19;;;8.10;73.10
12536;BME280;6334;48.696;2.114;2023-02-12T10:00:59;101956.66;;;8.17;72.49
12536;BME280;6334;48.696;2.114;2023-02-12T10:03:29;101950.88;;;8.33;72.23
12536;BME280;6334;48.696;2.114;2023-02-12T10:06:06;101951.47;;;8.21;72.48
12536;BME280;6334;48.696;2.114;2023-02-12T10:11:32;101957.94;;;8.27;72.76
12536;BME280;6334;48.696;2.114;2023-02-12T10:14:02;101960.82;;;8.32;72.15
12536;BME280;6334;48.696;2.114;2023-02-12T10:19:14;101950.66;;;8.42;71.98
12536;BME280;6334;48.696;2.114;2023-02-12T10:24:00;101952.05;;;8.72;70.87
12536;BME280;6334;48.696;2.114;2023-02-12T10:28:53;101957.06;;;8.29;72.09
12536;BME280;6334;48.696;2.114;2023-02-12T10:31:32;101961.05;;;8.23;72.91
12536;BME280;6334;48.696;2.114;2023-02-12T10:33:58;101961.86;;;8.33;72.14
12536;BME280;6334;48.696;2.114;2023-02-12T10:36:46;101967.41;;;8.25;72.52
12536;BME280;6334;48.696;2.114;2023-02-12T10:39:33;101968.19;;;8.18;72.23
12536;BME280;6334;48.696;2.114;2023-02-12T10:44:39;101961.78;;;8.40;72.23
12536;BME280;6334;48.696;2.114;2023-02-12T10:47:16;101950.82;;;8.39;72.07
12536;BME280;6334;48.696;2.114;2023-02-12T10:49:44;101965.47;;;8.41;72.06
12536;BME280;6334;48.696;2.114;2023-02-12T10:55:21;101963.77;;;8.20;72.25
12536;BME280;6334;48.696;2.114;2023-02-12T10:57:33;101962.51;;;8.47;71.69
12536;BME280;6334;48.696;2.114;2023-02-12T11:00:25;101956.80;;;8.48;71.37
12536;BME280;6334;48.696;2.114;2023-02-12T11:03:21;101958.09;;;8.68;70.94
12536;BME280;6334;48.696;2.114;2023-02-12T11:05:30;101957.58;;;8.26;71.94
12536;BME280;6334;48.696;2.114;2023-02-12T11:07:58;101958.38;;;8.40;71.32
12536;BME280;6334;48.696;2.114;2023-02-12T11:10:31;101958.31;;;8.45;71.39
12536;BME280;6334;48.696;2.114;2023-02-12T11:12:59;101945.37;;;8.82;70.84
12536;BME280;6334;48.696;2.114;2023-02-12T11:15:33;101947.52;;;8.61;71.23
12536;BME280;6334;48.696;2.114;2023-02-12T11:17:59;101944.24;;;8.68;71.21
12536;BME280;6334;48.696;2.114;2023-02-12T11:20:29;101948.83;;;8.72;70.90
12536;BME280;6334;48.696;2.114;2023-02-12T11:23:00;101950.34;;;8.61;71.42
12536;BME280;6334;48.696;2.114;2023-02-12T11:25:35;101942.41;;;8.50;71.24
12536;BME280;6334;48.696;2.114;2023-02-12T11:28:15;101937.34;;;8.55;71.55
12536;BME280;6334;48.696;2.114;2023-02-12T11:33:32;101930.44;;;8.82;70.75
12536;BME280;6334;48.696;2.114;2023-02-12T11:38:38;101909.51;;;8.79;70.83
12536;BME280;6334;48.696;2.114;2023-02-12T11:41:05;101929.20;;;8.84;71.09
12536;BME280;6334;48.696;2.114;2023-02-12T11:43:32;101922.92;;;8.32;71.52
12536;BME280;6334;48.696;2.114;2023-02-12T11:46:03;101902.28;;;8.44;71.15
12536;BME280;6334;48.696;2.114;2023-02-12T11:48:34;101907.39;;;8.58;70.91
12536;BME280;6334;48.696;2.114;2023-02-12T11:51:05;101909.88;;;8.91;70.73
12536;BME280;6334;48.696;2.114;2023-02-12T11:53:39;101904.51;;;9.01;70.10
12536;BME280;6334;48.696;2.114;2023-02-12T11:56:04;101899.88;;;9.10;69.94
12536;BME280;6334;48.696;2.114;2023-02-12T11:58:32;101901.72;;;8.83;70.09
12536;BME280;6334;48.696;2.114;2023-02-12T12:01:21;101894.96;;;8.99;70.31
12536;BME280;6334;48.696;2.114;2023-02-12T12:04:08;101898.08;;;8.61;70.79
12536;BME280;6334;48.696;2.114;2023-02-12T12:06:46;101894.97;;;8.72;70.36
12536;BME280;6334;48.696;2.114;2023-02-12T12:09:24;101902.16;;;8.64;70.77
12536;BME280;6334;48.696;2.114;2023-02-12T12:14:55;101896.47;;;8.62;70.49
12536;BME280;6334;48.696;2.114;2023-02-12T12:17:52;101889.55;;;8.80;70.78
12536;BME280;6334;48.696;2.114;2023-02-12T12:20:40;101882.82;;;8.74;70.48
12536;BME280;6334;48.696;2.114;2023-02-12T12:23:18;101876.52;;;8.95;69.81
12536;BME280;6334;48.696;2.114;2023-02-12T12:25:50;101873.97;;;9.09;70.17
12536;BME280;6334;48.696;2.114;2023-02-12T12:47:14;101855.44;;;9.41;68.44
12536;BME280;6334;48.696;2.114;2023-02-12T12:49:47;101853.81;;;9.32;69.37
12536;BME280;6334;48.696;2.114;2023-02-12T12:52:21;101850.15;;;8.85;69.41
12536;BME280;6334;48.696;2.114;2023-02-12T12:54:50;101849.06;;;9.09;69.16
12536;BME280;6334;48.696;2.114;2023-02-12T13:00:07;101837.62;;;9.28;69.25
12536;BME280;6334;48.696;2.114;2023-02-12T13:02:53;101844.58;;;9.13;69.22
12536;BME280;6334;48.696;2.114;2023-02-12T13:08:44;101837.97;;;8.97;69.15
12536;BME280;6334;48.696;2.114;2023-02-12T13:11:17;101844.03;;;9.00;69.33
12536;BME280;6334;48.696;2.114;2023-02-12T13:13:49;101572.09;;;7.56;68.62
12536;BME280;6334;48.696;2.114;2023-02-12T13:16:29;101835.52;;;8.98;69.20
12536;BME280;6334;48.696;2.114;2023-02-12T13:22:18;101826.13;;;9.83;68.05
12536;BME280;6334;48.696;2.114;2023-02-12T14:12:08;101803.31;;;9.09;69.00
12536;BME280;6334;48.696;2.114;2023-02-12T17:06:13;101781.28;;;8.19;70.79
12536;BME280;6334;48.696;2.114;2023-02-12T17:08:43;101755.53;;;8.92;69.50
12536;BME280;6334;48.696;2.114;2023-02-12T17:11:14;101770.61;;;8.27;70.85
12536;BME280;6334;48.696;2.114;2023-02-12T17:13:45;101770.59;;;8.32;70.32
12536;BME280;6334;48.696;2.114;2023-02-12T17:16:14;101769.73;;;8.15;70.86
12536;BME280;6334;48.696;2.114;2023-02-12T17:18:44;101754.98;;;8.02;70.79
12536;BME280;6334;48.696;2.114;2023-02-12T17:23:09;101770.11;;;8.14;69.45
12536;BME280;6334;48.696;2.114;2023-02-12T17:26:03;101778.01;;;7.98;70.18
12536;BME280;6334;48.696;2.114;2023-02-12T17:28:35;101781.77;;;7.88;71.04
12536;BME280;6334;48.696;2.114;2023-02-12T17:31:06;101782.98;;;7.98;70.71
12536;BME280;6334;48.696;2.114;2023-02-12T17:34:18;101777.44;;;8.02;69.41
12536;BME280;6334;48.696;2.114;2023-02-12T17:36:57;101785.45;;;8.14;69.25
12536;BME280;6334;48.696;2.114;2023-02-12T17:40:09;101784.95;;;8.26;68.63
12536;BME280;6334;48.696;2.114;2023-02-12T17:42:39;101785.01;;;8.19;69.02
12536;BME280;6334;48.696;2.114;2023-02-12T17:45:25;101785.44;;;8.23;68.88
12536;BME280;6334;48.696;2.114;2023-02-12T17:49:36;101784.73;;;8.11;68.94
12536;BME280;6334;48.696;2.114;2023-02-12T17:53:04;101788.40;;;8.16;68.66
12536;BME280;6334;48.696;2.114;2023-02-12T17:55:53;101761.38;;;7.97;68.89
12536;BME280;6334;48.696;2.114;2023-02-12T17:58:53;101791.34;;;8.07;68.34
12536;BME280;6334;48.696;2.114;2023-02-12T18:02:37;101792.56;;;8.10;68.16
12536;BME280;6334;48.696;2.114;2023-02-12T18:05:12;101795.03;;;8.06;69.10
12536;BME280;6334;48.696;2.114;2023-02-12T18:07:41;101789.81;;;7.97;68.28
12536;BME280;6334;48.696;2.114;2023-02-12T18:12:21;101520.14;;;6.22;68.55
12536;BME280;6334;48.696;2.114;2023-02-12T18:14:56;101797.13;;;7.95;68.10
12536;BME280;6334;48.696;2.114;2023-02-12T18:17:25;101794.86;;;7.88;68.30
12536;BME280;6334;48.696;2.114;2023-02-12T18:21:55;101789.44;;;7.81;68.36
12536;BME280;6334;48.696;2.114;2023-02-12T18:25:40;101786.21;;;7.74;68.15
12536;BME280;6334;48.696;2.114;2023-02-12T18:30:19;101791.16;;;7.70;68.22
12536;BME280;6334;48.696;2.114;2023-02-12T18:32:49;101777.13;;;7.73;68.86
12536;BME280;6334;48.696;2.114;2023-02-12T18:35:34;101779.03;;;7.79;68.99
12536;BME280;6334;48.696;2.114;2023-02-12T18:38:04;101773.59;;;7.77;69.33
12536;BME280;6334;48.696;2.114;2023-02-12T18:40:38;101773.67;;;7.76;70.00
12536;BME280;6334;48.696;2.114;2023-02-12T18:43:05;101777.39;;;7.75;69.08
12536;BME280;6334;48.696;2.114;2023-02-12T18:45:37;101766.93;;;7.63;69.72
12536;BME280;6334;48.696;2.114;2023-02-12T18:48:04;101761.95;;;7.63;69.84
12536;BME280;6334;48.696;2.114;2023-02-12T18:50:36;101765.64;;;7.55;70.94
12536;BME280;6334;48.696;2.114;2023-02-12T18:53:06;101762.22;;;7.51;70.43
12536;BME280;6334;48.696;2.114;2023-02-12T18:55:37;101765.95;;;7.52;70.77
12536;BME280;6334;48.696;2.114;2023-02-12T18:58:05;101761.81;;;7.46;71.58
12536;BME280;6334;48.696;2.114;2023-02-12T19:00:36;101758.42;;;7.61;70.15
12536;BME280;6334;48.696;2.114;2023-02-12T19:03:06;101740.08;;;7.33;70.97
12536;BME280;6334;48.696;2.114;2023-02-12T19:05:35;101755.96;;;7.44;71.21
12536;BME280;6334;48.696;2.114;2023-02-12T19:09:02;101752.40;;;7.38;70.47
12536;BME280;6334;48.696;2.114;2023-02-12T19:11:32;101749.90;;;7.29;70.38